Louisville International Standiford Field
KSDF : rendu visible

Aérodrome :











RETROUVEZ-NOUS SUR...

 
LOGIN :

S'inscrire | Disclaimer

   EN    FR    IT 

 









Légende :    VFR   VFR Marginal   IFR   IFR Intensif   IFR Très Intensif
Visi : 
Plafond : 
>= 8 km
>= 3000ft
5 à 8 km
1000 à 3000 ft
1500m à 5 km
500 à 1000 ft
800 à 1500m
200 à 500 ft
< 800m
< 200 ft
Symboles :   Orages  Brouillard  Fortes neiges  Fortes précipitations  Vent > 20 kt






- Altitude de l'aérodrome : 501 ft
- Code IATA : SDF


KSDF - Louisville International Standiford Field

DERNIER METAR :
  • 050056Z 32008KT 10SM SCT095 SCT120 OVC250 18/10 A3000 RMK AO2 SLP156 T01830100

METARs EXPIRÉS :
  • 042356Z 34013KT 10SM OVC080 19/10 A2999 RMK AO2 SLP154 T01940100 10244 20194 53013
  • 042256Z 32012KT 10SM SCT070 BKN085 BKN120 BKN250 21/10 A2997 RMK AO2 SLP148 T02060100

TAF KSDF
Valide du 05 à 00h jusqu'au 06 à 06h UTC


042320Z 0500/0606 33009KT P6SM BKN100
FM050600 32006KT P6SM BKN035
TEMPO 0514/0518 BKN015
FM060000 VRB04KT P6SM BKN045



MET'MAP, la Météo Aéronautique d'un coup d'oeil ! - Copyright ORBIFLY Décembre 2007 - Disclaimer

ORBIFLY MET'MAP TEAM :

Programmation & Développement : Alexandra Zaïnal
Sur une idée originale de : Baudouin d'Aumeries
Assistance à la programmation : Marc-Olivier Méhu
Soutien technique & logistique : Manuel Goepfert

Contact : metmap@orbifly.com




SOURCES & CREDITS :

   NOAA       Earth
Advisory